Time;durP1;ratioP1;P1;durP2;ratioP2;P2;SDS_P1;SDS_P2;PMS_P1;PMS_P2;Temp;Humidity;BMP_temperature;BMP_pressure;BME280_temperature;BME280_humidity;BME280_pressure;Samples;Min_cycle;Max_cycle;Signal;HPM_P1;HPM_P2
2021/12/25 00:02:48;;;;;;;34.35;15.98;;;;;;;;;;6313254;28;20060;-82
2021/12/25 00:05:54;;;;;;;26.77;14.23;;;;;;;;;;6323735;28;20048;-83
2021/12/25 00:08:55;;;;;;;26.63;12.23;;;;;;;;;;6321205;28;20493;-83
2021/12/25 00:11:57;;;;;;;29.10;13.52;;;;;;;;;;6321166;28;20177;-82
2021/12/25 00:14:59;;;;;;;58.30;25.25;;;;;;;;;;6299610;28;20036;-83
2021/12/25 00:18:01;;;;;;;40.77;16.63;;;;;;;;;;6313559;28;20135;-82
2021/12/25 00:21:03;;;;;;;29.70;12.05;;;;;;;;;;6322766;28;20486;-82
2021/12/25 00:24:05;;;;;;;20.30;9.38;;;;;;;;;;6316520;28;20053;-83
2021/12/25 00:27:22;;;;;;;21.08;10.23;;;;;;;;;;6285520;28;20050;-84
2021/12/25 00:30:38;;;;;;;25.23;12.50;;;;;;;;;;6294879;28;20049;-81
2021/12/25 00:36:46;;;;;;;42.53;18.23;;;;;;;;;;6279400;28;20620;-83
2021/12/25 00:39:51;;;;;;;28.23;12.60;;;;;;;;;;6287561;28;20649;-85
2021/12/25 00:42:52;;;;;;;20.63;9.55;;;;;;;;;;6279033;28;20795;-81
2021/12/25 00:45:54;;;;;;;21.95;10.30;;;;;;;;;;6278618;28;20527;-81
2021/12/25 00:48:56;;;;;;;22.35;11.35;;;;;;;;;;6303743;28;20127;-86
2021/12/25 00:51:58;;;;;;;26.33;11.57;;;;;;;;;;6302917;28;20043;-81
2021/12/25 00:55:01;;;;;;;18.48;8.20;;;;;;;;;;6294415;28;20028;-81
2021/12/25 00:58:03;;;;;;;20.77;8.00;;;;;;;;;;6303744;28;20477;-82
2021/12/25 01:01:05;;;;;;;14.10;7.47;;;;;;;;;;6283770;28;20515;-83
2021/12/25 01:04:07;;;;;;;12.77;5.43;;;;;;;;;;6320626;28;20043;-84
2021/12/25 01:07:09;;;;;;;7.83;3.80;;;;;;;;;;6284801;28;20051;-83
2021/12/25 01:10:15;;;;;;;7.57;3.70;;;;;;;;;;6285479;28;20094;-82
2021/12/25 01:13:25;;;;;;;6.20;2.80;;;;;;;;;;6304125;28;20111;-80
2021/12/25 01:30:30;;;;;;;1.13;1.00;;;;;;;;;;6181990;28;20046;-84
2021/12/25 01:50:45;;;;;;;1.98;1.45;;;;;;;;;;6323735;28;20043;-82
2021/12/25 01:53:47;;;;;;;2.63;1.73;;;;;;;;;;6298072;28;20045;-81
2021/12/25 01:56:49;;;;;;;2.63;1.83;;;;;;;;;;6291142;28;20141;-81
2021/12/25 01:59:51;;;;;;;4.28;2.30;;;;;;;;;;6303596;28;20044;-82
2021/12/25 02:02:54;;;;;;;3.28;2.05;;;;;;;;;;6293906;28;20048;-83
2021/12/25 02:05:58;;;;;;;4.03;2.25;;;;;;;;;;6306066;28;20264;-82
2021/12/25 02:09:06;;;;;;;3.40;2.20;;;;;;;;;;6287750;28;20143;-81
2021/12/25 02:12:10;;;;;;;4.60;2.47;;;;;;;;;;6296220;28;20045;-81
2021/12/25 02:15:16;;;;;;;3.08;2.10;;;;;;;;;;6289833;28;20062;-81
2021/12/25 02:18:53;;;;;;;4.80;2.88;;;;;;;;;;6279074;28;20511;-82
2021/12/25 02:22:01;;;;;;;6.18;2.78;;;;;;;;;;6294972;28;20051;-84
2021/12/25 02:25:03;;;;;;;3.92;2.35;;;;;;;;;;6300281;28;20044;-81
2021/12/25 02:28:05;;;;;;;3.42;2.60;;;;;;;;;;6322873;28;20059;-83
2021/12/25 02:31:10;;;;;;;3.80;2.30;;;;;;;;;;6321686;28;20126;-82
2021/12/25 02:34:14;;;;;;;3.60;2.35;;;;;;;;;;6306744;28;20501;-83
2021/12/25 02:37:16;;;;;;;;;;;;;;;;;;6295740;28;20630;-84
2021/12/25 02:40:18;;;;;;;4.70;2.58;;;;;;;;;;6304043;28;19920;-82
2021/12/25 02:43:20;;;;;;;3.97;2.38;;;;;;;;;;6312198;28;20043;-81
2021/12/25 02:46:24;;;;;;;4.35;2.72;;;;;;;;;;6294436;28;20482;-83
2021/12/25 02:49:26;;;;;;;4.88;2.58;;;;;;;;;;6289109;28;20044;-83
2021/12/25 02:52:27;;;;;;;3.95;2.92;;;;;;;;;;6303131;28;20044;-84
2021/12/25 02:55:29;;;;;;;4.28;2.70;;;;;;;;;;6290166;28;20119;-84
2021/12/25 02:58:31;;;;;;;5.28;2.83;;;;;;;;;;6281195;28;20421;-82
2021/12/25 03:01:32;;;;;;;4.53;2.63;;;;;;;;;;6279916;28;20087;-82
2021/12/25 03:04:39;;;;;;;5.15;3.08;;;;;;;;;;6280253;28;20135;-82
2021/12/25 03:07:42;;;;;;;4.07;2.47;;;;;;;;;;6295952;28;20045;-82
2021/12/25 03:10:45;;;;;;;4.60;2.70;;;;;;;;;;6298469;28;20639;-83
2021/12/25 03:13:57;;;;;;;4.88;2.78;;;;;;;;;;6283558;28;20119;-84
2021/12/25 03:17:03;;;;;;;4.00;2.78;;;;;;;;;;6268115;28;20127;-82
2021/12/25 03:20:08;;;;;;;3.15;2.35;;;;;;;;;;6304350;28;20047;-83
2021/12/25 03:23:09;;;;;;;2.90;2.00;;;;;;;;;;6297207;28;20082;-82
2021/12/25 03:26:11;;;;;;;5.13;2.58;;;;;;;;;;6293198;28;20102;-82
2021/12/25 03:29:12;;;;;;;4.43;2.60;;;;;;;;;;6282012;28;20048;-82
2021/12/25 03:32:13;;;;;;;5.20;2.75;;;;;;;;;;6291976;28;20074;-83
2021/12/25 03:35:15;;;;;;;4.32;2.70;;;;;;;;;;6300669;28;20064;-82
2021/12/25 03:38:19;;;;;;;5.45;3.08;;;;;;;;;;6278491;28;20040;-84
2021/12/25 03:41:21;;;;;;;6.10;2.70;;;;;;;;;;6279727;28;20052;-82
2021/12/25 03:44:24;;;;;;;6.20;3.33;;;;;;;;;;6304281;28;20040;-82
2021/12/25 03:47:34;;;;;;;6.63;3.08;;;;;;;;;;6320565;28;20382;-82
2021/12/25 04:00:42;;;;;;;5.80;3.30;;;;;;;;;;6284495;28;20122;-83
2021/12/25 04:03:59;;;;;;;4.57;2.75;;;;;;;;;;6303428;28;20386;-81
2021/12/25 04:07:14;;;;;;;6.00;3.28;;;;;;;;;;6287800;28;20048;-83
2021/12/25 04:10:16;;;;;;;6.82;3.42;;;;;;;;;;6302587;28;20050;-83
2021/12/25 04:13:19;;;;;;;5.07;3.30;;;;;;;;;;6300596;28;20048;-82
2021/12/25 04:16:22;;;;;;;7.55;4.38;;;;;;;;;;6298084;28;20071;-81
2021/12/25 04:19:25;;;;;;;7.03;3.72;;;;;;;;;;6272549;28;20045;-82
2021/12/25 04:22:33;;;;;;;7.82;4.32;;;;;;;;;;6285867;28;20452;-83
2021/12/25 04:25:36;;;;;;;5.82;3.53;;;;;;;;;;6293801;28;20105;-82
2021/12/25 04:28:45;;;;;;;5.95;3.13;;;;;;;;;;6316333;28;20109;-83
2021/12/25 05:02:03;;;;;;;6.22;3.70;;;;;;;;;;6308162;28;20048;-83
2021/12/25 05:05:38;;;;;;;6.72;3.75;;;;;;;;;;6283216;28;20041;-83
2021/12/25 05:08:54;;;;;;;5.70;3.10;;;;;;;;;;6283012;28;20040;-81
2021/12/25 05:11:56;;;;;;;7.32;3.75;;;;;;;;;;6288839;28;20573;-84
2021/12/25 05:14:59;;;;;;;6.40;3.88;;;;;;;;;;6303025;28;20086;-84
2021/12/25 05:18:01;;;;;;;6.47;3.72;;;;;;;;;;6294782;28;20052;-82
2021/12/25 05:21:07;;;;;;;8.27;3.60;;;;;;;;;;6311151;28;20082;-84
2021/12/25 05:24:09;;;;;;;7.40;4.13;;;;;;;;;;6300680;28;20300;-84
2021/12/25 05:27:19;;;;;;;6.90;4.10;;;;;;;;;;6277863;28;20044;-84
2021/12/25 05:30:21;;;;;;;6.60;3.60;;;;;;;;;;6282095;28;20044;-84
2021/12/25 05:33:43;;;;;;;6.05;3.22;;;;;;;;;;6295737;28;20062;-84
2021/12/25 05:37:05;;;;;;;8.40;3.85;;;;;;;;;;6274257;28;20040;-82
2021/12/25 05:40:33;;;;;;;7.82;4.20;;;;;;;;;;6286860;28;20078;-84
2021/12/25 05:43:35;;;;;;;9.65;5.22;;;;;;;;;;6269028;28;20128;-79
2021/12/25 05:46:37;;;;;;;9.68;5.03;;;;;;;;;;6285854;28;20051;-82
2021/12/25 05:49:39;;;;;;;8.90;4.60;;;;;;;;;;6291046;28;20051;-80
2021/12/25 05:52:47;;;;;;;8.07;4.43;;;;;;;;;;6276073;28;20054;-81
2021/12/25 05:56:15;;;;;;;8.18;4.40;;;;;;;;;;6292279;28;20044;-81
2021/12/25 05:59:33;;;;;;;10.43;5.20;;;;;;;;;;6292356;28;20055;-80
2021/12/25 06:03:09;;;;;;;9.63;4.57;;;;;;;;;;6196602;28;20050;-82
2021/12/25 06:06:13;;;;;;;10.00;5.32;;;;;;;;;;6278708;28;20051;-83
2021/12/25 06:09:15;;;;;;;7.40;4.03;;;;;;;;;;6277431;28;20402;-79
2021/12/25 06:12:17;;;;;;;8.63;4.40;;;;;;;;;;6286036;28;20111;-81
2021/12/25 06:15:20;;;;;;;8.00;3.95;;;;;;;;;;6295801;28;20040;-82
2021/12/25 06:18:41;;;;;;;8.55;4.80;;;;;;;;;;6291210;28;20044;-79
2021/12/25 06:21:47;;;;;;;8.02;4.05;;;;;;;;;;6278485;28;20036;-81
2021/12/25 06:25:07;;;;;;;8.43;4.20;;;;;;;;;;6289497;28;20048;-80
2021/12/25 06:28:24;;;;;;;8.10;4.22;;;;;;;;;;6303524;28;20043;-82
2021/12/25 06:31:50;;;;;;;8.25;4.55;;;;;;;;;;6291958;28;20056;-79
2021/12/25 06:35:24;;;;;;;8.15;4.18;;;;;;;;;;6271598;28;20387;-82
2021/12/25 06:38:58;;;;;;;6.55;4.28;;;;;;;;;;6275857;28;20055;-81
2021/12/25 06:42:17;;;;;;;7.97;4.10;;;;;;;;;;6263054;28;20071;-80
2021/12/25 06:45:20;;;;;;;7.10;4.10;;;;;;;;;;6289370;28;20047;-82
2021/12/25 06:48:22;;;;;;;7.97;4.40;;;;;;;;;;6277869;28;20145;-81
2021/12/25 06:51:50;;;;;;;7.88;4.32;;;;;;;;;;6261797;28;20044;-81
2021/12/25 06:55:05;;;;;;;7.55;4.55;;;;;;;;;;6311120;28;20409;-80
2021/12/25 06:58:27;;;;;;;9.27;4.20;;;;;;;;;;6305028;28;20051;-81
2021/12/25 07:01:29;;;;;;;6.00;3.15;;;;;;;;;;6280033;28;20036;-81
2021/12/25 07:04:30;;;;;;;6.80;3.70;;;;;;;;;;6277221;28;20043;-81
2021/12/25 07:08:02;;;;;;;4.50;2.65;;;;;;;;;;6295632;28;20056;-82
2021/12/25 07:11:36;;;;;;;4.60;2.63;;;;;;;;;;6258315;28;20051;-80
2021/12/25 07:14:48;;;;;;;4.53;2.43;;;;;;;;;;6280825;28;20056;-83
2021/12/25 07:18:11;;;;;;;4.30;2.67;;;;;;;;;;6272884;28;20048;-82
2021/12/25 07:21:33;;;;;;;61.92;22.33;;;;;;;;;;6274500;28;20047;-83
2021/12/25 07:25:01;;;;;;;31.25;12.80;;;;;;;;;;6277539;28;20048;-81
2021/12/25 07:28:28;;;;;;;20.00;9.07;;;;;;;;;;6295548;28;20056;-78
2021/12/25 07:31:30;;;;;;;8.38;4.25;;;;;;;;;;6264740;28;20041;-79
2021/12/25 07:34:32;;;;;;;22.17;12.35;;;;;;;;;;6259981;28;20051;-82
2021/12/25 07:37:34;;;;;;;11.55;5.60;;;;;;;;;;6282775;28;20617;-81
2021/12/25 07:40:36;;;;;;;9.88;5.93;;;;;;;;;;6291276;28;20055;-81
2021/12/25 07:43:38;;;;;;;10.85;5.65;;;;;;;;;;6276311;28;20045;-81
2021/12/25 07:47:10;;;;;;;58.42;22.85;;;;;;;;;;6275892;28;20067;-82
2021/12/25 07:50:13;;;;;;;9.88;4.82;;;;;;;;;;6299929;28;20040;-82
2021/12/25 07:53:16;;;;;;;5.90;3.33;;;;;;;;;;6315051;28;20129;-83
2021/12/25 07:56:17;;;;;;;4.65;3.00;;;;;;;;;;6299469;28;20600;-82
2021/12/25 07:59:20;;;;;;;10.60;6.07;;;;;;;;;;6281356;28;20044;-83
2021/12/25 08:02:21;;;;;;;8.50;4.70;;;;;;;;;;6273896;28;20060;-83
2021/12/25 08:05:23;;;;;;;21.75;11.18;;;;;;;;;;6311019;28;20051;-83
2021/12/25 08:08:25;;;;;;;15.27;8.25;;;;;;;;;;6307164;28;20060;-82
2021/12/25 08:11:28;;;;;;;14.90;8.18;;;;;;;;;;6290874;28;20050;-83
2021/12/25 08:14:30;;;;;;;19.35;9.82;;;;;;;;;;6308530;28;20036;-83
2021/12/25 08:17:32;;;;;;;25.08;14.32;;;;;;;;;;6288412;28;20476;-84
2021/12/25 08:21:04;;;;;;;13.38;5.28;;;;;;;;;;6247029;28;20045;-82
2021/12/25 08:24:25;;;;;;;11.60;6.07;;;;;;;;;;6291107;28;23332;-84
2021/12/25 08:27:50;;;;;;;6.15;3.35;;;;;;;;;;6311601;28;20047;-81
2021/12/25 08:31:03;;;;;;;4.72;2.72;;;;;;;;;;6296105;28;20087;-80
2021/12/25 08:34:24;;;;;;;6.93;4.00;;;;;;;;;;6305593;28;20108;-82
2021/12/25 08:37:38;;;;;;;7.28;4.28;;;;;;;;;;6278281;28;20048;-81
2021/12/25 08:40:42;;;;;;;4.85;3.30;;;;;;;;;;6298357;28;20056;-82
2021/12/25 08:43:48;;;;;;;;;;;;;;;;;;6256300;28;20131;-83
2021/12/25 08:46:58;;;;;;;4.47;2.65;;;;;;;;;;6268380;28;19946;-83
2021/12/25 08:50:06;;;;;;;8.20;5.18;;;;;;;;;;6272531;28;20120;-82
2021/12/25 08:53:08;;;;;;;5.35;3.00;;;;;;;;;;6295876;28;20155;-83
2021/12/25 08:56:10;;;;;;;12.50;5.85;;;;;;;;;;6290282;28;20078;-82
2021/12/25 08:59:12;;;;;;;4.70;3.22;;;;;;;;;;6259271;28;20056;-83
2021/12/25 09:02:16;;;;;;;6.25;4.00;;;;;;;;;;6296049;28;20052;-82
2021/12/25 09:05:18;;;;;;;4.88;3.88;;;;;;;;;;6296877;28;20395;-81
2021/12/25 09:08:20;;;;;;;4.35;3.78;;;;;;;;;;6278812;28;20788;-82
2021/12/25 09:11:21;;;;;;;6.07;4.53;;;;;;;;;;6288666;28;20032;-83
2021/12/25 09:14:23;;;;;;;3.10;2.17;;;;;;;;;;6221468;28;20175;-80
2021/12/25 09:17:25;;;;;;;5.13;3.90;;;;;;;;;;6282729;28;20137;-82
2021/12/25 09:20:27;;;;;;;5.25;3.10;;;;;;;;;;6291959;28;20185;-82
2021/12/25 09:23:28;;;;;;;3.78;2.78;;;;;;;;;;6277887;28;20448;-82
2021/12/25 09:26:32;;;;;;;4.28;2.80;;;;;;;;;;6291885;28;20134;-81
2021/12/25 09:29:33;;;;;;;7.40;5.43;;;;;;;;;;6289516;28;20048;-79
2021/12/25 09:32:35;;;;;;;2.50;1.90;;;;;;;;;;6291111;28;20050;-80
2021/12/25 09:35:37;;;;;;;3.97;2.20;;;;;;;;;;6298348;28;20790;-82
2021/12/25 09:38:39;;;;;;;6.22;4.40;;;;;;;;;;6294571;28;20044;-82
2021/12/25 09:41:41;;;;;;;5.78;3.75;;;;;;;;;;6277807;28;20412;-81
2021/12/25 09:44:42;;;;;;;4.88;3.47;;;;;;;;;;6284330;28;20059;-81
2021/12/25 09:47:45;;;;;;;3.28;1.90;;;;;;;;;;6302566;28;20068;-83
2021/12/25 09:50:47;;;;;;;7.88;4.95;;;;;;;;;;6281610;28;20062;-83
2021/12/25 09:54:07;;;;;;;4.50;2.40;;;;;;;;;;6298360;28;20089;-80
2021/12/25 09:57:10;;;;;;;6.10;3.50;;;;;;;;;;6294804;28;20052;-82
2021/12/25 10:00:22;;;;;;;1.67;1.30;;;;;;;;;;6287482;28;20089;-81
2021/12/25 10:03:41;;;;;;;1.58;1.40;;;;;;;;;;6321114;28;20036;-82
2021/12/25 10:06:44;;;;;;;2.28;1.40;;;;;;;;;;6302877;28;20051;-80
2021/12/25 10:09:55;;;;;;;3.72;2.35;;;;;;;;;;6301202;28;20585;-80
2021/12/25 10:12:57;;;;;;;1.55;1.40;;;;;;;;;;6302385;28;20048;-83
2021/12/25 10:16:37;;;;;;;3.05;1.83;;;;;;;;;;6294117;28;20039;-80
2021/12/25 10:19:39;;;;;;;2.78;1.88;;;;;;;;;;6304693;28;20048;-80
2021/12/25 10:22:55;;;;;;;2.45;1.30;;;;;;;;;;6299072;28;20051;-79
2021/12/25 10:25:59;;;;;;;2.33;1.70;;;;;;;;;;6315340;28;20059;-82
2021/12/25 10:29:24;;;;;;;1.88;1.35;;;;;;;;;;6286533;28;20040;-81
2021/12/25 10:32:26;;;;;;;1.77;1.40;;;;;;;;;;6311896;28;20110;-82
2021/12/25 10:35:28;;;;;;;1.65;1.40;;;;;;;;;;6309244;28;20040;-80
2021/12/25 10:38:30;;;;;;;1.90;1.30;;;;;;;;;;6273392;28;20077;-81
2021/12/25 10:41:35;;;;;;;3.85;2.28;;;;;;;;;;6271567;28;20048;-80
2021/12/25 10:44:46;;;;;;;1.92;1.40;;;;;;;;;;6283226;28;20048;-81
2021/12/25 10:47:59;;;;;;;1.52;1.23;;;;;;;;;;6277638;28;20044;-83
2021/12/25 10:51:01;;;;;;;1.92;1.55;;;;;;;;;;6273328;28;20071;-82
2021/12/25 10:54:03;;;;;;;8.25;3.38;;;;;;;;;;6275441;28;20500;-82
2021/12/25 10:57:06;;;;;;;3.30;1.65;;;;;;;;;;6274842;28;20052;-82
2021/12/25 11:00:15;;;;;;;6.53;2.70;;;;;;;;;;6299623;28;20052;-81
2021/12/25 11:03:26;;;;;;;3.75;2.10;;;;;;;;;;6257880;28;20052;-81
2021/12/25 11:06:28;;;;;;;2.88;1.40;;;;;;;;;;6275705;28;20063;-82
2021/12/25 11:09:33;;;;;;;2.15;1.27;;;;;;;;;;6315238;28;20044;-82
2021/12/25 11:12:36;;;;;;;1.98;1.30;;;;;;;;;;6304371;28;20127;-82
2021/12/25 11:15:37;;;;;;;1.17;1.00;;;;;;;;;;6304038;28;20040;-81
2021/12/25 11:19:04;;;;;;;1.45;1.17;;;;;;;;;;6303570;28;20577;-82
2021/12/25 11:22:06;;;;;;;3.83;1.58;;;;;;;;;;6304190;28;20048;-83
2021/12/25 11:25:09;;;;;;;4.13;2.17;;;;;;;;;;6297046;28;20052;-80
2021/12/25 11:28:13;;;;;;;3.77;2.10;;;;;;;;;;6285816;28;20047;-80
2021/12/25 11:31:14;;;;;;;5.07;2.53;;;;;;;;;;6291336;28;20438;-81
2021/12/25 11:34:18;;;;;;;2.70;2.30;;;;;;;;;;6317251;28;20048;-80
2021/12/25 11:37:19;;;;;;;4.65;2.50;;;;;;;;;;6314107;28;20048;-81
2021/12/25 11:40:24;;;;;;;3.50;2.08;;;;;;;;;;6285782;28;20128;-82
2021/12/25 11:43:40;;;;;;;4.40;2.13;;;;;;;;;;6272640;28;20093;-81
2021/12/25 11:46:45;;;;;;;5.57;2.72;;;;;;;;;;6289328;28;20054;-79
2021/12/25 11:49:54;;;;;;;3.10;2.15;;;;;;;;;;6290641;28;20050;-79
2021/12/25 11:53:20;;;;;;;4.90;2.70;;;;;;;;;;6291447;28;20104;-80
2021/12/25 11:59:42;;;;;;;;;;;;;;;;;;6297104;28;20099;-82
2021/12/25 12:02:44;;;;;;;2.75;1.50;;;;;;;;;;6300290;28;19924;-82
2021/12/25 12:05:47;;;;;;;7.90;3.85;;;;;;;;;;6300514;28;20047;-82
2021/12/25 12:08:54;;;;;;;2.72;2.08;;;;;;;;;;6295318;28;20070;-81
2021/12/25 12:12:21;;;;;;;7.47;3.33;;;;;;;;;;6312079;28;20040;-81
2021/12/25 12:16:01;;;;;;;4.60;2.15;;;;;;;;;;6185142;28;20053;-80
2021/12/25 12:19:32;;;;;;;4.32;2.60;;;;;;;;;;6312277;28;20044;-83
2021/12/25 12:22:49;;;;;;;10.05;5.57;;;;;;;;;;6312194;28;20046;-80
2021/12/25 12:26:03;;;;;;;4.90;2.67;;;;;;;;;;6282721;28;20044;-82
2021/12/25 12:29:04;;;;;;;3.45;2.55;;;;;;;;;;6272055;28;20056;-82
2021/12/25 12:32:27;;;;;;;2.95;2.28;;;;;;;;;;6295270;28;20116;-81
2021/12/25 12:35:34;;;;;;;4.60;2.88;;;;;;;;;;6294062;28;20074;-80
2021/12/25 12:38:46;;;;;;;12.80;6.88;;;;;;;;;;6311511;28;20067;-82
2021/12/25 12:41:55;;;;;;;10.40;3.97;;;;;;;;;;6257843;28;20085;-81
2021/12/25 12:45:08;;;;;;;11.68;4.95;;;;;;;;;;6317038;28;20071;-82
2021/12/25 12:48:23;;;;;;;4.50;2.63;;;;;;;;;;6308302;28;20048;-80
2021/12/25 12:51:24;;;;;;;9.45;4.32;;;;;;;;;;6307397;28;20040;-79
2021/12/25 12:54:39;;;;;;;9.95;4.68;;;;;;;;;;6296595;28;20520;-82
2021/12/25 12:57:44;;;;;;;5.82;2.95;;;;;;;;;;6304434;28;20595;-80
2021/12/25 13:00:49;;;;;;;3.47;2.53;;;;;;;;;;6297466;28;20048;-81
2021/12/25 13:03:59;;;;;;;5.43;3.55;;;;;;;;;;6300501;28;20135;-81
2021/12/25 13:07:10;;;;;;;5.07;2.70;;;;;;;;;;6269615;28;20044;-81
2021/12/25 13:10:19;;;;;;;3.72;2.42;;;;;;;;;;6269464;28;20037;-82
2021/12/25 13:13:28;;;;;;;3.85;2.78;;;;;;;;;;6277077;28;20081;-81
2021/12/25 13:16:37;;;;;;;3.00;2.03;;;;;;;;;;6278794;28;20390;-82
2021/12/25 13:19:46;;;;;;;5.25;2.33;;;;;;;;;;6315000;28;20463;-80
2021/12/25 13:22:57;;;;;;;5.90;3.00;;;;;;;;;;6313148;28;20047;-80
2021/12/25 13:26:02;;;;;;;4.20;2.40;;;;;;;;;;6268740;28;20048;-81
2021/12/25 13:29:07;;;;;;;4.25;2.75;;;;;;;;;;6292131;28;20403;-82
2021/12/25 13:32:10;;;;;;;4.60;2.10;;;;;;;;;;6300000;28;20068;-79
2021/12/25 13:35:17;;;;;;;5.00;2.90;;;;;;;;;;6318311;28;20135;-81
2021/12/25 13:38:18;;;;;;;3.35;2.03;;;;;;;;;;6293953;28;20040;-82
2021/12/25 13:41:28;;;;;;;6.25;3.53;;;;;;;;;;6280160;28;20040;-80
2021/12/25 13:44:34;;;;;;;8.60;3.60;;;;;;;;;;6278832;28;20042;-81
2021/12/25 13:47:38;;;;;;;4.35;2.47;;;;;;;;;;6275692;28;20317;-83
2021/12/25 13:50:40;;;;;;;16.70;7.72;;;;;;;;;;6290728;28;20044;-82
2021/12/25 13:53:45;;;;;;;8.85;3.80;;;;;;;;;;6275404;28;20090;-82
2021/12/25 13:56:49;;;;;;;33.70;12.15;;;;;;;;;;6299108;28;20047;-83
2021/12/25 13:59:53;;;;;;;45.20;16.80;;;;;;;;;;6295974;28;20452;-80
2021/12/25 14:03:02;;;;;;;52.72;22.63;;;;;;;;;;6301185;28;20135;-83
2021/12/25 14:06:05;;;;;;;63.85;25.88;;;;;;;;;;6301362;28;20044;-82
2021/12/25 14:09:07;;;;;;;8.68;5.25;;;;;;;;;;6299821;28;20235;-80
2021/12/25 14:12:09;;;;;;;14.23;6.82;;;;;;;;;;6291711;28;20107;-82
2021/12/25 14:15:13;;;;;;;28.45;13.85;;;;;;;;;;6262085;28;20040;-79
2021/12/25 14:18:15;;;;;;;15.65;10.18;;;;;;;;;;6275437;28;20045;-83
2021/12/25 14:21:21;;;;;;;3.45;2.10;;;;;;;;;;6258935;28;20182;-82
2021/12/25 14:24:23;;;;;;;6.05;2.75;;;;;;;;;;6304135;28;20205;-83
2021/12/25 14:27:25;;;;;;;6.55;4.22;;;;;;;;;;6303652;28;20044;-83
2021/12/25 14:30:27;;;;;;;4.57;2.50;;;;;;;;;;6301746;28;20044;-84
2021/12/25 14:33:32;;;;;;;4.63;2.03;;;;;;;;;;6286275;28;20468;-82
2021/12/25 14:36:39;;;;;;;4.55;2.58;;;;;;;;;;6276903;28;20040;-80
2021/12/25 14:39:41;;;;;;;4.35;2.55;;;;;;;;;;6304009;28;20059;-80
2021/12/25 14:42:53;;;;;;;4.25;2.45;;;;;;;;;;6276736;28;20132;-82
2021/12/25 14:45:56;;;;;;;10.63;4.03;;;;;;;;;;6288213;28;20044;-82
2021/12/25 14:49:04;;;;;;;12.43;5.95;;;;;;;;;;6274724;28;20070;-83
2021/12/25 14:52:06;;;;;;;7.22;3.20;;;;;;;;;;6320422;28;20104;-82
2021/12/25 14:55:16;;;;;;;12.32;5.97;;;;;;;;;;6301575;28;20052;-80
2021/12/25 14:58:24;;;;;;;10.82;4.22;;;;;;;;;;6305583;28;20045;-82
2021/12/25 15:01:34;;;;;;;5.97;4.38;;;;;;;;;;6282281;28;20047;-82
2021/12/25 15:04:36;;;;;;;5.30;2.38;;;;;;;;;;6282646;28;20039;-81
2021/12/25 15:07:39;;;;;;;8.43;5.70;;;;;;;;;;6286820;28;20100;-83
2021/12/25 15:10:40;;;;;;;5.00;2.70;;;;;;;;;;6296557;28;20039;-82
2021/12/25 15:13:56;;;;;;;6.22;4.95;;;;;;;;;;6294788;28;20171;-81
2021/12/25 15:17:03;;;;;;;8.00;4.30;;;;;;;;;;6299941;28;20039;-82
2021/12/25 15:20:09;;;;;;;6.18;3.20;;;;;;;;;;6311805;28;20044;-80
2021/12/25 15:23:18;;;;;;;7.30;4.00;;;;;;;;;;6314208;28;20044;-82
2021/12/25 15:26:20;;;;;;;6.45;4.88;;;;;;;;;;6316589;28;20138;-80
2021/12/25 15:29:34;;;;;;;16.38;7.97;;;;;;;;;;6315263;28;20653;-80
2021/12/25 15:32:39;;;;;;;9.73;5.60;;;;;;;;;;6293725;28;20074;-81
2021/12/25 15:35:44;;;;;;;5.88;2.47;;;;;;;;;;6315478;28;20493;-81
2021/12/25 15:38:45;;;;;;;22.20;9.57;;;;;;;;;;6290083;28;20142;-79
2021/12/25 15:41:48;;;;;;;4.63;2.78;;;;;;;;;;6295871;28;20046;-81
2021/12/25 15:44:50;;;;;;;4.20;2.97;;;;;;;;;;6312787;28;20047;-82
2021/12/25 15:47:55;;;;;;;7.18;3.85;;;;;;;;;;6285234;28;20036;-80
2021/12/25 15:50:57;;;;;;;7.13;3.40;;;;;;;;;;6296182;28;20056;-81
2021/12/25 15:53:59;;;;;;;3.78;2.80;;;;;;;;;;6313132;28;20054;-80
2021/12/25 15:57:00;;;;;;;5.43;2.58;;;;;;;;;;6286677;28;20042;-81
2021/12/25 16:00:09;;;;;;;4.40;2.80;;;;;;;;;;6306674;28;20057;-81
2021/12/25 16:03:11;;;;;;;8.07;3.47;;;;;;;;;;6308361;28;20052;-82
2021/12/25 16:06:13;;;;;;;6.07;2.72;;;;;;;;;;6310549;28;20052;-81
2021/12/25 16:09:14;;;;;;;3.88;2.58;;;;;;;;;;6293164;28;20039;-80
2021/12/25 16:12:16;;;;;;;7.80;3.45;;;;;;;;;;6308253;28;20040;-81
2021/12/25 16:15:18;;;;;;;7.53;4.18;;;;;;;;;;6310480;28;20134;-81
2021/12/25 16:18:20;;;;;;;4.35;3.15;;;;;;;;;;6272242;28;20048;-81
2021/12/25 16:21:22;;;;;;;5.55;3.40;;;;;;;;;;6300582;28;20074;-83
2021/12/25 16:24:24;;;;;;;3.17;2.15;;;;;;;;;;6293727;28;20040;-82
2021/12/25 16:27:25;;;;;;;5.47;2.70;;;;;;;;;;6294139;28;20044;-81
2021/12/25 16:30:30;;;;;;;5.03;3.00;;;;;;;;;;6306801;28;20040;-82
2021/12/25 16:33:32;;;;;;;4.00;2.88;;;;;;;;;;6300221;28;20040;-82
2021/12/25 16:36:34;;;;;;;7.90;4.63;;;;;;;;;;6292983;28;20048;-83
2021/12/25 16:39:36;;;;;;;5.78;3.65;;;;;;;;;;6283715;28;20382;-81
2021/12/25 16:42:38;;;;;;;12.90;7.82;;;;;;;;;;6293190;28;20422;-83
2021/12/25 16:45:40;;;;;;;9.98;4.57;;;;;;;;;;6292511;28;20044;-82
2021/12/25 16:48:44;;;;;;;7.50;5.25;;;;;;;;;;6300430;28;20413;-82
2021/12/25 16:51:46;;;;;;;6.82;4.32;;;;;;;;;;6301317;28;20052;-82
2021/12/25 16:54:48;;;;;;;3.60;2.63;;;;;;;;;;6301131;28;20047;-81
2021/12/25 16:57:50;;;;;;;5.60;2.92;;;;;;;;;;6300660;28;20067;-83
2021/12/25 17:00:52;;;;;;;6.63;3.80;;;;;;;;;;6316216;28;20717;-82
2021/12/25 17:03:54;;;;;;;4.20;3.15;;;;;;;;;;6288086;28;20036;-82
2021/12/25 17:06:57;;;;;;;6.45;3.50;;;;;;;;;;6300608;28;20178;-81
2021/12/25 17:09:59;;;;;;;4.50;2.90;;;;;;;;;;6296422;28;20036;-81
2021/12/25 17:13:02;;;;;;;3.90;2.55;;;;;;;;;;6289551;28;20677;-83
2021/12/25 17:16:05;;;;;;;6.05;3.20;;;;;;;;;;6311317;28;20048;-81
2021/12/25 17:19:06;;;;;;;5.43;2.63;;;;;;;;;;6310984;28;20052;-82
2021/12/25 17:22:10;;;;;;;3.58;2.63;;;;;;;;;;6311104;28;20193;-82
2021/12/25 17:25:16;;;;;;;4.38;2.40;;;;;;;;;;6301764;28;20052;-82
2021/12/25 17:28:18;;;;;;;24.02;12.45;;;;;;;;;;6296086;28;20043;-82
2021/12/25 17:31:20;;;;;;;7.88;4.75;;;;;;;;;;6277200;28;20045;-82
2021/12/25 17:34:22;;;;;;;8.60;4.93;;;;;;;;;;6307143;28;20063;-83
2021/12/25 17:37:25;;;;;;;11.98;7.13;;;;;;;;;;6290217;28;20120;-83
2021/12/25 17:40:32;;;;;;;6.28;4.00;;;;;;;;;;6311696;28;20036;-81
2021/12/25 17:43:34;;;;;;;18.38;8.27;;;;;;;;;;6290247;28;20037;-81
2021/12/25 17:46:36;;;;;;;12.90;6.55;;;;;;;;;;6312446;28;20044;-83
2021/12/25 17:49:38;;;;;;;9.52;5.82;;;;;;;;;;6309245;28;20040;-83
2021/12/25 17:52:46;;;;;;;14.77;5.80;;;;;;;;;;6292053;28;20139;-84
2021/12/25 17:55:48;;;;;;;19.30;9.82;;;;;;;;;;6294202;28;20412;-83
2021/12/25 17:58:49;;;;;;;16.55;7.20;;;;;;;;;;6296588;28;20044;-83
2021/12/25 18:01:53;;;;;;;7.22;3.72;;;;;;;;;;6322137;28;20559;-84
2021/12/25 18:04:54;;;;;;;56.28;19.88;;;;;;;;;;6303955;28;20066;-84
2021/12/25 18:07:56;;;;;;;11.65;5.38;;;;;;;;;;6301939;28;20051;-82
2021/12/25 18:10:58;;;;;;;24.23;9.25;;;;;;;;;;6300092;28;20039;-82
2021/12/25 18:14:00;;;;;;;15.55;7.35;;;;;;;;;;6301424;28;20046;-82
2021/12/25 18:17:04;;;;;;;20.38;8.60;;;;;;;;;;6293977;28;20039;-82
2021/12/25 18:20:09;;;;;;;26.35;11.82;;;;;;;;;;6289336;28;20052;-81
2021/12/25 18:23:12;;;;;;;20.23;8.40;;;;;;;;;;6314635;28;20527;-81
2021/12/25 18:26:14;;;;;;;11.82;6.70;;;;;;;;;;6292250;28;20040;-81
2021/12/25 18:29:15;;;;;;;11.90;5.72;;;;;;;;;;6294574;28;20104;-83
2021/12/25 18:32:17;;;;;;;5.55;3.13;;;;;;;;;;6314094;28;20040;-83
2021/12/25 18:35:19;;;;;;;10.68;5.65;;;;;;;;;;6292145;28;20145;-81
2021/12/25 18:38:21;;;;;;;13.55;6.78;;;;;;;;;;6294414;28;20536;-80
2021/12/25 18:41:26;;;;;;;12.75;5.45;;;;;;;;;;6289185;28;20043;-82
2021/12/25 18:44:28;;;;;;;10.20;5.32;;;;;;;;;;6313860;28;20040;-82
2021/12/25 18:47:30;;;;;;;18.90;8.57;;;;;;;;;;6299230;28;20050;-82
2021/12/25 18:50:32;;;;;;;7.45;4.28;;;;;;;;;;6291514;28;20043;-81
2021/12/25 18:53:35;;;;;;;5.57;3.45;;;;;;;;;;6299504;28;20123;-80
2021/12/25 18:56:37;;;;;;;5.78;3.90;;;;;;;;;;6312314;28;20127;-81
2021/12/25 18:59:40;;;;;;;5.78;3.70;;;;;;;;;;6306488;28;20533;-80
2021/12/25 19:02:42;;;;;;;;;;;;;;;;;;6297068;28;20050;-82
2021/12/25 19:05:44;;;;;;;7.75;3.90;;;;;;;;;;6313363;28;19920;-81
2021/12/25 19:08:46;;;;;;;7.88;4.13;;;;;;;;;;6306462;28;20123;-82
2021/12/25 19:11:48;;;;;;;6.43;2.97;;;;;;;;;;6291388;28;20036;-80
2021/12/25 19:14:49;;;;;;;6.13;3.45;;;;;;;;;;6294289;28;20032;-82
2021/12/25 19:17:51;;;;;;;7.85;3.65;;;;;;;;;;6314131;28;20123;-82
2021/12/25 19:20:54;;;;;;;6.47;3.50;;;;;;;;;;6309746;28;20039;-82
2021/12/25 19:23:56;;;;;;;6.22;3.40;;;;;;;;;;6296248;28;20515;-82
2021/12/25 19:26:57;;;;;;;9.60;4.43;;;;;;;;;;6294947;28;20037;-82
2021/12/25 19:29:59;;;;;;;7.90;3.40;;;;;;;;;;6312867;28;20046;-82
2021/12/25 19:33:03;;;;;;;6.75;3.65;;;;;;;;;;6310341;28;20102;-81
2021/12/25 19:36:05;;;;;;;7.95;4.40;;;;;;;;;;6316068;28;20044;-81
2021/12/25 19:39:07;;;;;;;7.55;3.47;;;;;;;;;;6317383;28;20079;-81
2021/12/25 19:42:11;;;;;;;7.30;3.38;;;;;;;;;;6286841;28;20054;-82
2021/12/25 19:45:18;;;;;;;4.78;2.92;;;;;;;;;;6288326;28;20048;-81
2021/12/25 19:48:20;;;;;;;6.60;3.22;;;;;;;;;;6284491;28;20048;-83
2021/12/25 19:51:28;;;;;;;5.60;3.05;;;;;;;;;;6286818;28;20142;-82
2021/12/25 19:54:33;;;;;;;3.30;2.30;;;;;;;;;;6287048;28;20040;-81